createdAt,value
2022-12-12T00:00:38.000Z,16
2022-12-12T00:04:06.000Z,15.3
2022-12-12T00:07:34.000Z,14.5
2022-12-12T00:11:02.000Z,14.5
2022-12-12T00:14:29.000Z,17.1
2022-12-12T00:17:57.000Z,15.5
2022-12-12T00:21:25.000Z,16.9
2022-12-12T00:24:53.000Z,16.2
2022-12-12T00:28:21.000Z,20.8
2022-12-12T00:31:10.000Z,21.3
2022-12-12T00:34:38.000Z,22.9
2022-12-12T00:38:06.000Z,21.2
2022-12-12T00:41:34.000Z,22
2022-12-12T00:45:02.000Z,23.2
2022-12-12T00:48:30.000Z,21.6
2022-12-12T00:51:58.000Z,21.4
2022-12-12T00:55:26.000Z,21.3
2022-12-12T00:58:54.000Z,21
2022-12-12T01:02:22.000Z,22.3
2022-12-12T01:05:50.000Z,21.1
2022-12-12T01:08:39.000Z,21.3
2022-12-12T01:12:07.000Z,21.5
2022-12-12T01:15:35.000Z,19.1
2022-12-12T01:19:03.000Z,21.7
2022-12-12T01:22:31.000Z,19
2022-12-12T01:25:59.000Z,21.1
2022-12-12T01:29:26.000Z,21.5
2022-12-12T01:32:55.000Z,20.2
2022-12-12T01:36:23.000Z,21.5
2022-12-12T01:39:51.000Z,20.9
2022-12-12T01:43:18.000Z,19.8
2022-12-12T01:46:07.000Z,20.6
2022-12-12T01:49:35.000Z,18.2
2022-12-12T01:53:03.000Z,18.8
2022-12-12T01:56:31.000Z,17.7
2022-12-12T01:59:59.000Z,18.1
2022-12-12T02:03:27.000Z,18
2022-12-12T02:06:55.000Z,18.8
2022-12-12T02:10:23.000Z,18.7
2022-12-12T02:13:51.000Z,18.7
2022-12-12T02:17:19.000Z,18.2
2022-12-12T02:20:46.000Z,18.9
2022-12-12T02:23:36.000Z,19
2022-12-12T02:27:03.000Z,19.3
2022-12-12T02:30:31.000Z,19.5
2022-12-12T02:33:59.000Z,19.4
2022-12-12T02:37:27.000Z,18.7
2022-12-12T02:40:55.000Z,18.4
2022-12-12T02:44:23.000Z,19
2022-12-12T02:47:51.000Z,18.8
2022-12-12T02:51:19.000Z,16.6
2022-12-12T02:54:47.000Z,15.8
2022-12-12T02:58:14.000Z,14.9
2022-12-12T03:01:04.000Z,15.2
2022-12-12T03:04:32.000Z,15.3
2022-12-12T03:08:00.000Z,14.9
2022-12-12T03:11:28.000Z,15.5
2022-12-12T03:14:56.000Z,15.2
2022-12-12T03:18:23.000Z,16.1
2022-12-12T03:21:51.000Z,17.2
2022-12-12T03:25:19.000Z,17.1
2022-12-12T03:28:47.000Z,16.7
2022-12-12T03:32:15.000Z,16.7
2022-12-12T03:35:43.000Z,17.7
2022-12-12T03:38:32.000Z,18
2022-12-12T03:42:00.000Z,19.8
2022-12-12T03:45:28.000Z,19.6
2022-12-12T03:48:56.000Z,18.7
2022-12-12T03:52:23.000Z,17.9
2022-12-12T03:55:51.000Z,17.8
2022-12-12T03:59:19.000Z,20.1
2022-12-12T04:02:48.000Z,21.4
2022-12-12T04:06:16.000Z,20.5
2022-12-12T04:09:44.000Z,19.9
2022-12-12T04:13:12.000Z,24.8
2022-12-12T04:16:01.000Z,22.6
2022-12-12T04:19:29.000Z,21
2022-12-12T04:22:57.000Z,19
2022-12-12T04:26:25.000Z,24
2022-12-12T04:29:53.000Z,24
2022-12-12T04:33:21.000Z,25.6
2022-12-12T04:36:49.000Z,24.1
2022-12-12T04:40:16.000Z,22.5
2022-12-12T04:43:44.000Z,22.3
2022-12-12T04:47:12.000Z,22.1
2022-12-12T04:50:40.000Z,22.8
2022-12-12T04:53:29.000Z,24.2
2022-12-12T04:56:57.000Z,25.1
2022-12-12T05:00:25.000Z,26.2
2022-12-12T05:03:53.000Z,31.2
2022-12-12T05:07:20.000Z,28.1
2022-12-12T05:10:48.000Z,26.5
2022-12-12T05:14:16.000Z,26.9
2022-12-12T05:17:44.000Z,26.7
2022-12-12T05:21:12.000Z,25.2
2022-12-12T05:24:39.000Z,25.1
2022-12-12T05:28:07.000Z,25.4
2022-12-12T05:30:57.000Z,25.4
2022-12-12T05:34:24.000Z,24.4
2022-12-12T05:37:52.000Z,24.5
2022-12-12T05:41:20.000Z,24.9
2022-12-12T05:44:48.000Z,21.8
2022-12-12T05:48:16.000Z,23.3
2022-12-12T05:51:45.000Z,22.6
2022-12-12T05:55:12.000Z,23.7
2022-12-12T05:58:40.000Z,21.4
2022-12-12T06:02:08.000Z,24.7
2022-12-12T06:05:36.000Z,26.6
2022-12-12T06:08:26.000Z,30.4
2022-12-12T06:11:54.000Z,24.5
2022-12-12T06:15:22.000Z,24.1
2022-12-12T06:18:50.000Z,26.9
2022-12-12T06:22:17.000Z,23
2022-12-12T06:25:45.000Z,24
2022-12-12T06:29:13.000Z,23.8
2022-12-12T06:32:41.000Z,21.8
2022-12-12T06:36:09.000Z,22.1
2022-12-12T06:39:37.000Z,22.3
2022-12-12T06:43:05.000Z,26
2022-12-12T06:45:54.000Z,25.4
2022-12-12T06:49:22.000Z,30.2
2022-12-12T06:52:50.000Z,30.4
2022-12-12T06:56:18.000Z,25.2
2022-12-12T06:59:46.000Z,24.7
2022-12-12T07:03:14.000Z,28.5
2022-12-12T07:06:42.000Z,30.1
2022-12-12T07:10:09.000Z,28.2
2022-12-12T07:13:41.000Z,25.9
2022-12-12T07:17:10.000Z,27.9
2022-12-12T07:20:38.000Z,27.2
2022-12-12T07:23:27.000Z,25.9
2022-12-12T07:26:55.000Z,26.4
2022-12-12T07:30:22.000Z,24.5
2022-12-12T07:33:50.000Z,30.3
2022-12-12T07:37:18.000Z,28.6
2022-12-12T07:40:46.000Z,25.7
2022-12-12T07:44:14.000Z,26
2022-12-12T07:47:42.000Z,27
2022-12-12T07:51:10.000Z,25.8
2022-12-12T07:54:38.000Z,25.1
2022-12-12T07:58:06.000Z,27.7
2022-12-12T08:00:55.000Z,30.1
2022-12-12T08:04:23.000Z,26.4
2022-12-12T08:07:51.000Z,24
2022-12-12T08:11:19.000Z,23.6
2022-12-12T08:14:47.000Z,20.5
2022-12-12T08:18:15.000Z,24.2
2022-12-12T08:21:43.000Z,25.9
2022-12-12T08:25:11.000Z,25.1
2022-12-12T08:28:39.000Z,24.6
2022-12-12T08:32:07.000Z,27.3
2022-12-12T08:35:35.000Z,25.6
2022-12-12T08:38:24.000Z,27.8
2022-12-12T08:41:52.000Z,25.6
2022-12-12T08:45:20.000Z,24.6
2022-12-12T08:48:47.000Z,26.7
2022-12-12T08:52:15.000Z,26.9
2022-12-12T08:55:43.000Z,26.6
2022-12-12T08:59:11.000Z,24.7
2022-12-12T09:02:39.000Z,27.1
2022-12-12T09:06:07.000Z,25.1
2022-12-12T09:09:35.000Z,26.8
2022-12-12T09:13:03.000Z,27.3
2022-12-12T09:15:53.000Z,29.7
2022-12-12T09:19:21.000Z,27.2
2022-12-12T09:22:48.000Z,26.9
2022-12-12T09:26:16.000Z,29.8
2022-12-12T09:29:44.000Z,25.6
2022-12-12T09:33:12.000Z,27.8
2022-12-12T09:36:40.000Z,30
2022-12-12T09:40:11.000Z,28.9
2022-12-12T09:43:39.000Z,30.2
2022-12-12T09:47:07.000Z,29.4
2022-12-12T09:50:35.000Z,29.9
2022-12-12T09:53:24.000Z,34.4
2022-12-12T09:56:52.000Z,30.6
2022-12-12T10:00:20.000Z,31.3
2022-12-12T10:03:48.000Z,26.2
2022-12-12T10:07:16.000Z,29.4
2022-12-12T10:10:44.000Z,28.9
2022-12-12T10:14:12.000Z,30
2022-12-12T10:17:40.000Z,28.8
2022-12-12T10:21:08.000Z,26.6
2022-12-12T10:24:35.000Z,25.9
2022-12-12T10:28:03.000Z,24.3
2022-12-12T10:30:53.000Z,27.3
2022-12-12T10:34:21.000Z,26.6
2022-12-12T10:37:48.000Z,29.9
2022-12-12T10:41:16.000Z,24.2
2022-12-12T10:44:44.000Z,29.6
2022-12-12T10:48:12.000Z,24.2
2022-12-12T10:51:40.000Z,26.2
2022-12-12T10:55:08.000Z,27.9
2022-12-12T10:58:36.000Z,26.9
2022-12-12T11:02:04.000Z,26.5
2022-12-12T11:05:32.000Z,25.6
2022-12-12T11:08:21.000Z,26
2022-12-12T11:11:55.000Z,24.8
2022-12-12T11:15:22.000Z,26.6
2022-12-12T11:18:50.000Z,23.9
2022-12-12T11:22:18.000Z,24.7
2022-12-12T11:25:46.000Z,26.7
2022-12-12T11:29:14.000Z,24.7
2022-12-12T11:32:42.000Z,25.4
2022-12-12T11:36:10.000Z,26.4
2022-12-12T11:39:38.000Z,26.1
2022-12-12T11:43:06.000Z,25.9
2022-12-12T11:45:55.000Z,23.4
2022-12-12T11:49:24.000Z,25.9
2022-12-12T11:52:51.000Z,24.1
2022-12-12T11:56:19.000Z,26.6
2022-12-12T11:59:47.000Z,26
2022-12-12T12:03:15.000Z,22.3
2022-12-12T12:06:49.000Z,22.8
2022-12-12T12:10:17.000Z,25.5
2022-12-12T12:13:46.000Z,27.6
2022-12-12T12:17:14.000Z,25.8
2022-12-12T12:20:42.000Z,24.6
2022-12-12T12:23:31.000Z,25.4
2022-12-12T12:27:03.000Z,23
2022-12-12T12:30:31.000Z,23.4
2022-12-12T12:33:59.000Z,21.6
2022-12-12T12:37:27.000Z,23.9
2022-12-12T12:40:55.000Z,23.8
2022-12-12T12:44:23.000Z,21.1
2022-12-12T12:47:51.000Z,20.7
2022-12-12T12:51:19.000Z,22
2022-12-12T12:54:46.000Z,20.8
2022-12-12T12:58:22.000Z,21
2022-12-12T13:01:11.000Z,21.4
2022-12-12T13:04:39.000Z,21.5
2022-12-12T13:08:07.000Z,20.2
2022-12-12T13:11:35.000Z,21.2
2022-12-12T13:15:03.000Z,19.6
2022-12-12T13:18:30.000Z,20.5
2022-12-12T13:22:12.000Z,20.3
2022-12-12T13:25:40.000Z,20.8
2022-12-12T13:29:08.000Z,21.7
2022-12-12T13:32:36.000Z,20.5
2022-12-12T13:36:04.000Z,20.4
2022-12-12T13:38:53.000Z,20.4
2022-12-12T13:42:21.000Z,22.2
2022-12-12T13:45:49.000Z,22.2
2022-12-12T13:49:17.000Z,22.3
2022-12-12T13:52:45.000Z,20.9
2022-12-12T13:56:12.000Z,20.3
2022-12-12T13:59:40.000Z,21.6
2022-12-12T14:03:08.000Z,21.9
2022-12-12T14:06:36.000Z,20.3
2022-12-12T14:10:04.000Z,21
2022-12-12T14:13:33.000Z,20.7
2022-12-12T14:16:22.000Z,21
2022-12-12T14:19:50.000Z,21.4
2022-12-12T14:23:18.000Z,22.3
2022-12-12T14:26:45.000Z,22.1
2022-12-12T14:30:13.000Z,20.9
2022-12-12T14:33:41.000Z,20.9
2022-12-12T14:37:09.000Z,20.5
2022-12-12T14:40:37.000Z,18.2
2022-12-12T14:44:05.000Z,19.8
2022-12-12T14:47:59.000Z,20.3
2022-12-12T14:51:27.000Z,19
2022-12-12T14:54:16.000Z,20.9
2022-12-12T14:57:44.000Z,19.9
2022-12-12T15:01:12.000Z,22.4
2022-12-12T15:04:40.000Z,21.2
2022-12-12T15:08:08.000Z,21.4
2022-12-12T15:11:36.000Z,23
2022-12-12T15:15:03.000Z,21.5
2022-12-12T15:18:31.000Z,21.5
2022-12-12T15:21:59.000Z,20.9
2022-12-12T15:25:27.000Z,22.3
2022-12-12T15:28:55.000Z,23.6
2022-12-12T15:31:44.000Z,31.4
2022-12-12T15:35:12.000Z,34.9
2022-12-12T15:38:40.000Z,21.4
2022-12-12T15:42:08.000Z,23.2
2022-12-12T15:45:36.000Z,22.9
2022-12-12T15:49:04.000Z,19.5
2022-12-12T15:52:31.000Z,21.7
2022-12-12T15:55:59.000Z,22.9
2022-12-12T15:59:27.000Z,22.3
2022-12-12T16:02:55.000Z,21.2
2022-12-12T16:06:23.000Z,20.2
2022-12-12T16:09:12.000Z,23
2022-12-12T16:12:40.000Z,24.4
2022-12-12T16:16:08.000Z,23.9
2022-12-12T16:19:36.000Z,23
2022-12-12T16:23:03.000Z,21.2
2022-12-12T16:26:31.000Z,21.4
2022-12-12T16:29:59.000Z,21.1
2022-12-12T16:33:27.000Z,22
2022-12-12T16:36:55.000Z,27.9
2022-12-12T16:40:23.000Z,27.6
2022-12-12T16:43:51.000Z,29.1
2022-12-12T16:46:40.000Z,23.5
2022-12-12T16:50:08.000Z,22.5
2022-12-12T16:53:36.000Z,20.7
2022-12-12T16:57:04.000Z,21.2
2022-12-12T17:00:32.000Z,21.5
2022-12-12T17:04:00.000Z,20.8
2022-12-12T17:07:28.000Z,20.7
2022-12-12T17:10:56.000Z,21.7
2022-12-12T17:14:31.000Z,21.5
2022-12-12T17:17:59.000Z,28.4
2022-12-12T17:21:26.000Z,54.8
2022-12-12T17:24:16.000Z,42.2
2022-12-12T17:27:44.000Z,28.2
2022-12-12T17:31:11.000Z,26.8
2022-12-12T17:34:39.000Z,23.4
2022-12-12T17:38:07.000Z,24.4
2022-12-12T17:41:37.000Z,22.1
2022-12-12T17:45:04.000Z,23.3
2022-12-12T17:48:32.000Z,22
2022-12-12T17:52:00.000Z,22.3
2022-12-12T17:55:28.000Z,21.3
2022-12-12T17:59:21.000Z,21.1
2022-12-12T18:02:10.000Z,21.1
2022-12-12T18:05:38.000Z,21.1
2022-12-12T18:09:05.000Z,21.6
2022-12-12T18:12:33.000Z,23.8
2022-12-12T18:16:01.000Z,22
2022-12-12T18:19:29.000Z,22.3
2022-12-12T18:22:57.000Z,24.2
2022-12-12T18:26:25.000Z,21.9
2022-12-12T18:29:53.000Z,22.4
2022-12-12T18:33:21.000Z,23.4
2022-12-12T18:36:48.000Z,27.7
2022-12-12T18:39:38.000Z,26.2
2022-12-12T18:43:05.000Z,24.3
2022-12-12T18:46:33.000Z,23.5
2022-12-12T18:50:04.000Z,21.6
2022-12-12T18:53:32.000Z,21.1
2022-12-12T18:57:00.000Z,20.1
2022-12-12T19:00:28.000Z,20.7
2022-12-12T19:03:56.000Z,21.7
2022-12-12T19:07:31.000Z,20.3
2022-12-12T19:10:59.000Z,19.6
2022-12-12T19:14:26.000Z,22.3
2022-12-12T19:17:50.000Z,20.1
2022-12-12T19:21:18.000Z,19.7
2022-12-12T19:24:45.000Z,23.1
2022-12-12T19:28:13.000Z,18.8
2022-12-12T19:31:41.000Z,21.1
2022-12-12T19:35:15.000Z,18.8
2022-12-12T19:38:43.000Z,20
2022-12-12T19:42:12.000Z,19.4
2022-12-12T19:45:40.000Z,21.8
2022-12-12T19:49:07.000Z,21
2022-12-12T19:52:35.000Z,21.4
2022-12-12T19:55:25.000Z,35.4
2022-12-12T19:58:53.000Z,21.4
2022-12-12T20:02:20.000Z,21.3
2022-12-12T20:05:48.000Z,24.8
2022-12-12T20:09:16.000Z,26.7
2022-12-12T20:12:44.000Z,23.6
2022-12-12T20:16:18.000Z,31.9
2022-12-12T20:19:46.000Z,25
2022-12-12T20:23:55.000Z,23.1
2022-12-12T20:27:22.000Z,32.3
2022-12-12T20:30:50.000Z,22.3
2022-12-12T20:33:39.000Z,23
2022-12-12T20:37:07.000Z,24.5
2022-12-12T20:40:40.000Z,24.2
2022-12-12T20:44:08.000Z,19.8
2022-12-12T20:47:36.000Z,21
2022-12-12T20:51:04.000Z,32.4
2022-12-12T20:55:13.000Z,31.4
2022-12-12T20:58:42.000Z,35.7
2022-12-12T21:02:11.000Z,25.3
2022-12-12T21:05:39.000Z,23
2022-12-12T21:09:07.000Z,32.4
2022-12-12T21:12:05.000Z,21.2
2022-12-12T21:15:33.000Z,31.3
2022-12-12T21:19:01.000Z,30.6
2022-12-12T21:22:29.000Z,30.7
2022-12-12T21:25:57.000Z,26.1
2022-12-12T21:29:25.000Z,24.8
2022-12-12T21:32:53.000Z,26.9
2022-12-12T21:36:21.000Z,26.1
2022-12-12T21:39:48.000Z,27.1
2022-12-12T21:43:16.000Z,28.8
2022-12-12T21:46:45.000Z,28
2022-12-12T21:49:34.000Z,27.8
2022-12-12T21:53:02.000Z,22.9
2022-12-12T21:56:30.000Z,26.4
2022-12-12T21:59:58.000Z,29.9
2022-12-12T22:03:25.000Z,28.5
2022-12-12T22:06:53.000Z,27.8
2022-12-12T22:10:21.000Z,24.6
2022-12-12T22:14:00.000Z,28.7
2022-12-12T22:17:28.000Z,25.3
2022-12-12T22:21:02.000Z,24.1
2022-12-12T22:24:29.000Z,25.9
2022-12-12T22:27:19.000Z,27.9
2022-12-12T22:30:47.000Z,28
2022-12-12T22:34:15.000Z,23.7
2022-12-12T22:37:42.000Z,27.7
2022-12-12T22:41:10.000Z,24.8
2022-12-12T22:44:38.000Z,23.3
2022-12-12T22:48:06.000Z,23.9
2022-12-12T22:51:34.000Z,27.3
2022-12-12T22:55:02.000Z,27.3
2022-12-12T22:58:30.000Z,22.6
2022-12-12T23:01:57.000Z,25.3
2022-12-12T23:04:46.000Z,28.7
2022-12-12T23:08:14.000Z,24.5
2022-12-12T23:11:42.000Z,27.2
2022-12-12T23:15:10.000Z,25.2
2022-12-12T23:18:38.000Z,25.4
2022-12-12T23:22:06.000Z,28.2
2022-12-12T23:25:34.000Z,26.4
2022-12-12T23:29:02.000Z,21.3
2022-12-12T23:32:30.000Z,28.2
2022-12-12T23:35:58.000Z,25.9
2022-12-12T23:39:25.000Z,27.1
2022-12-12T23:42:14.000Z,26.6
2022-12-12T23:45:42.000Z,26.6
2022-12-12T23:49:10.000Z,26.8
2022-12-12T23:52:38.000Z,28.4
2022-12-12T23:56:06.000Z,26.9
2022-12-12T23:59:34.000Z,24.7
